Time;durP1;ratioP1;P1;durP2;ratioP2;P2;SDS_P1;SDS_P2;PMS_P1;PMS_P2;Temp;Humidity;BMP_temperature;BMP_pressure;BME280_temperature;BME280_humidity;BME280_pressure;Samples;Min_cycle;Max_cycle;Signal;HPM_P1;HPM_P2
2022/11/23 05:16:15;;;;;;;25.75;12.43;;;;;;;2.42;100.00;98899.19;5561068;32;192825;-87
2022/11/23 05:19:19;;;;;;;21.37;10.68;;;;;;;2.39;100.00;98915.00;5546457;32;33631;-89
2022/11/23 05:22:21;;;;;;;20.55;11.15;;;;;;;2.43;100.00;98906.13;5543939;32;33991;-89
2022/11/23 05:25:24;;;;;;;21.23;10.75;;;;;;;2.44;100.00;98913.06;5552482;32;33953;-87
2022/11/23 05:28:29;;;;;;;19.37;10.85;;;;;;;2.47;100.00;98909.47;5553764;32;33400;-87
2022/11/23 05:31:42;;;;;;;21.37;10.95;;;;;;;2.48;100.00;98896.31;5547190;32;33757;-87
2022/11/23 05:34:45;;;;;;;23.17;10.80;;;;;;;2.49;100.00;98887.53;5546839;32;35127;-87
2022/11/23 05:37:49;;;;;;;18.30;10.57;;;;;;;2.54;100.00;98882.97;5544442;32;34054;-87
2022/11/23 05:40:51;;;;;;;18.15;10.18;;;;;;;2.55;100.00;98884.69;5544407;32;33608;-87
2022/11/23 05:43:55;;;;;;;18.48;10.20;;;;;;;2.55;100.00;98875.97;5549735;32;32376;-88
2022/11/23 05:46:58;;;;;;;17.45;10.23;;;;;;;2.56;100.00;98883.75;5563900;32;34055;-88
2022/11/23 05:50:02;;;;;;;18.48;9.73;;;;;;;2.56;100.00;98877.66;5550653;32;33273;-87
2022/11/23 05:53:06;;;;;;;15.57;9.55;;;;;;;2.55;100.00;98876.81;5564204;32;33873;-87
2022/11/23 05:56:09;;;;;;;16.08;8.88;;;;;;;2.55;100.00;98871.59;5564628;32;35401;-87
2022/11/23 05:59:12;;;;;;;15.95;9.40;;;;;;;2.66;100.00;98871.16;5564116;32;35111;-87
2022/11/23 06:02:16;;;;;;;16.27;8.98;;;;;;;2.61;100.00;98873.09;5563871;32;34810;-87
2022/11/23 06:05:19;;;;;;;16.80;8.90;;;;;;;2.64;100.00;98880.84;5564478;32;33661;-87
2022/11/23 06:08:22;;;;;;;14.93;8.80;;;;;;;2.67;100.00;98877.25;5577469;32;34949;-88
2022/11/23 06:11:24;;;;;;;14.73;9.30;;;;;;;2.71;100.00;98878.81;5541736;32;33565;-87
2022/11/23 06:14:28;;;;;;;13.85;9.00;;;;;;;2.65;100.00;98882.53;5529472;32;33014;-87
2022/11/23 06:17:31;;;;;;;14.90;9.07;;;;;;;2.67;100.00;98896.41;5544108;32;33791;-87
2022/11/23 06:20:35;;;;;;;15.63;9.18;;;;;;;2.65;100.00;98902.63;5543462;32;33618;-87
2022/11/23 06:23:38;;;;;;;16.05;8.18;;;;;;;2.69;100.00;98905.06;5546086;32;33625;-86
2022/11/23 06:26:41;;;;;;;16.58;9.65;;;;;;;2.77;100.00;98903.91;5561088;32;33946;-87
2022/11/23 06:29:45;;;;;;;16.62;8.98;;;;;;;2.75;100.00;98890.88;5570138;32;33839;-87
2022/11/23 06:32:48;;;;;;;14.57;8.82;;;;;;;2.75;100.00;98900.47;5571933;32;34370;-87
2022/11/23 06:35:57;;;;;;;14.57;8.00;;;;;;;2.76;100.00;98891.72;5570770;32;34669;-87
2022/11/23 06:39:00;;;;;;;14.70;8.30;;;;;;;2.77;100.00;98906.53;5554700;32;34836;-87
2022/11/23 06:42:03;;;;;;;16.90;9.02;;;;;;;2.71;100.00;98909.38;5537822;32;34135;-88
2022/11/23 06:45:26;;;;;;;16.42;8.27;;;;;;;2.71;100.00;98910.22;5517822;32;32411;-87
2022/11/23 06:48:30;;;;;;;16.35;8.82;;;;;;;2.85;100.00;98906.22;5538016;32;32786;-87
2022/11/23 06:51:33;;;;;;;15.13;8.50;;;;;;;2.75;100.00;98905.72;5556672;32;33600;-91
2022/11/23 06:54:35;;;;;;;16.30;8.88;;;;;;;2.74;100.00;98910.13;5561818;32;33704;-92
2022/11/23 06:57:38;;;;;;;16.33;9.10;;;;;;;2.69;100.00;98907.69;5537338;32;34571;-91
2022/11/23 07:00:42;;;;;;;13.88;9.20;;;;;;;2.70;100.00;98911.16;5523629;32;33158;-87
2022/11/23 07:03:45;;;;;;;15.68;9.20;;;;;;;2.74;100.00;98906.62;5533686;32;35520;-88
2022/11/23 07:06:49;;;;;;;15.73;9.27;;;;;;;2.79;100.00;98907.28;5537268;32;33588;-87
2022/11/23 07:09:54;;;;;;;17.25;10.20;;;;;;;2.77;100.00;98909.97;5527043;32;34131;-88
2022/11/23 07:13:04;;;;;;;14.93;8.63;;;;;;;2.76;100.00;98915.28;5524538;32;32370;-88
2022/11/23 07:16:07;;;;;;;13.98;8.50;;;;;;;2.77;100.00;98925.69;5527760;32;34238;-88
2022/11/23 07:19:11;;;;;;;13.95;9.07;;;;;;;2.86;100.00;98934.09;5547301;32;33964;-89
2022/11/23 07:22:13;;;;;;;14.98;9.00;;;;;;;2.86;100.00;98928.88;5544543;32;33876;-89
2022/11/23 07:25:17;;;;;;;16.98;8.88;;;;;;;2.82;100.00;98925.53;5519895;32;32745;-88
2022/11/23 07:28:20;;;;;;;11.93;7.53;;;;;;;2.81;100.00;98927.28;5533518;32;34072;-89
2022/11/23 07:31:23;;;;;;;16.90;9.00;;;;;;;2.79;100.00;98929.13;5546506;32;33858;-88
2022/11/23 07:34:29;;;;;;;12.63;7.40;;;;;;;2.82;100.00;98936.84;5539080;32;32398;-88
2022/11/23 07:37:32;;;;;;;11.88;8.20;;;;;;;2.79;100.00;98933.50;5533109;32;33703;-88
2022/11/23 07:40:36;;;;;;;13.48;7.70;;;;;;;2.80;100.00;98922.09;5547173;32;34123;-87
2022/11/23 07:43:39;;;;;;;15.57;8.05;;;;;;;2.85;100.00;98924.53;5523272;32;33034;-87
2022/11/23 07:46:41;;;;;;;13.40;7.75;;;;;;;2.94;100.00;98925.00;5533779;32;33475;-89
2022/11/23 07:49:44;;;;;;;11.80;7.57;;;;;;;2.97;100.00;98927.50;5554187;32;32976;-88
2022/11/23 07:52:47;;;;;;;12.43;7.65;;;;;;;2.96;100.00;98925.78;5556879;32;34334;-88
2022/11/23 07:55:55;;;;;;;13.20;8.38;;;;;;;2.90;100.00;98936.53;5549410;32;34042;-88
2022/11/23 07:58:58;;;;;;;15.13;8.73;;;;;;;2.97;100.00;98942.37;5549066;32;33918;-89
2022/11/23 08:02:00;;;;;;;12.95;7.90;;;;;;;2.99;100.00;98943.16;5550720;32;34778;-89
2022/11/23 08:05:04;;;;;;;12.00;7.75;;;;;;;2.98;100.00;98933.59;5534644;32;33108;-87
2022/11/23 08:08:12;;;;;;;13.00;8.10;;;;;;;2.97;100.00;98932.72;5550286;32;33874;-87
2022/11/23 08:11:17;;;;;;;15.68;7.70;;;;;;;3.02;100.00;98939.56;5548769;32;34358;-87
2022/11/23 08:14:20;;;;;;;13.38;7.72;;;;;;;3.08;100.00;98934.06;5548830;32;34315;-88
2022/11/23 08:17:22;;;;;;;15.60;8.30;;;;;;;3.16;100.00;98941.59;5548655;32;34130;-88
2022/11/23 08:20:27;;;;;;;12.32;8.10;;;;;;;3.22;100.00;98936.94;5548262;32;33750;-89
2022/11/23 08:23:30;;;;;;;12.43;7.62;;;;;;;3.10;100.00;98943.56;5548989;32;34046;-88
2022/11/23 08:26:32;;;;;;;11.18;7.50;;;;;;;3.13;100.00;98947.81;5536366;32;32980;-89
2022/11/23 08:29:35;;;;;;;14.98;7.47;;;;;;;3.15;100.00;98951.22;5548355;32;33875;-89
2022/11/23 08:32:37;;;;;;;14.32;7.18;;;;;;;3.17;100.00;98949.37;5548841;32;33606;-89
2022/11/23 08:35:41;;;;;;;11.40;7.15;;;;;;;3.22;100.00;98951.81;5548810;32;33503;-89
2022/11/23 08:38:44;;;;;;;12.15;7.03;;;;;;;3.31;100.00;98940.94;5548338;32;35075;-88
2022/11/23 08:41:47;;;;;;;10.88;6.93;;;;;;;3.26;100.00;98942.91;5543781;32;34715;-89
2022/11/23 08:44:50;;;;;;;9.80;7.43;;;;;;;3.22;100.00;98947.41;5548651;32;34520;-88
2022/11/23 08:47:54;;;;;;;12.30;7.47;;;;;;;3.30;100.00;98938.38;5560142;32;33464;-89
2022/11/23 08:50:59;;;;;;;10.85;6.97;;;;;;;3.31;100.00;98940.94;5554741;32;33227;-88
2022/11/23 08:54:02;;;;;;;12.32;7.43;;;;;;;3.31;100.00;98947.94;5580405;32;34032;-88
2022/11/23 08:57:04;;;;;;;11.12;6.85;;;;;;;3.31;100.00;98945.31;5578432;32;34054;-92
2022/11/23 09:00:07;;;;;;;9.90;6.53;;;;;;;3.34;100.00;98945.19;5568921;32;34242;-91
2022/11/23 09:03:10;;;;;;;12.68;6.82;;;;;;;3.38;100.00;98957.25;5569558;32;34528;-90
2022/11/23 09:06:13;;;;;;;11.18;7.05;;;;;;;3.34;100.00;98959.16;5570715;32;35220;-90
2022/11/23 09:09:15;;;;;;;10.35;6.93;;;;;;;3.35;100.00;98962.63;5556799;32;34917;-87
2022/11/23 09:12:18;;;;;;;11.73;7.18;;;;;;;3.38;100.00;98965.13;5549105;32;33919;-87
2022/11/23 09:15:21;;;;;;;9.07;6.28;;;;;;;3.45;100.00;98963.06;5554585;32;33828;-87
2022/11/23 09:18:24;;;;;;;9.43;6.43;;;;;;;3.47;100.00;98962.09;5552587;32;35398;-87
2022/11/23 09:21:32;;;;;;;10.25;6.97;;;;;;;3.40;100.00;98954.56;5549658;32;34156;-86
2022/11/23 09:24:34;;;;;;;11.50;7.00;;;;;;;3.42;100.00;98957.97;5548797;32;34400;-87
2022/11/23 09:27:37;;;;;;;9.30;7.00;;;;;;;3.41;100.00;98954.50;5549864;32;34300;-87
2022/11/23 09:30:41;;;;;;;11.90;7.28;;;;;;;3.34;100.00;98956.53;5554940;32;35864;-86
2022/11/23 09:33:44;;;;;;;12.57;7.45;;;;;;;3.35;100.00;98950.38;5573836;32;33688;-86
2022/11/23 09:36:47;;;;;;;10.48;6.95;;;;;;;3.40;100.00;98955.41;5554980;32;33970;-85
2022/11/23 09:39:49;;;;;;;13.15;7.45;;;;;;;3.52;100.00;98954.03;5565627;32;33796;-86
2022/11/23 09:43:21;;;;;;;14.15;7.80;;;;;;;3.40;100.00;98950.19;5557939;32;34373;-86
2022/11/23 09:46:35;;;;;;;12.30;7.32;;;;;;;3.54;100.00;98946.97;5507939;32;34023;-87
2022/11/23 09:49:58;;;;;;;12.75;6.87;;;;;;;3.63;100.00;98951.78;5540315;32;33578;-88
2022/11/23 09:53:09;;;;;;;11.77;6.68;;;;;;;3.54;100.00;98951.34;5539039;32;33877;-87
2022/11/23 09:56:26;;;;;;;10.43;6.10;;;;;;;3.44;100.00;98943.88;5526020;32;34029;-86
2022/11/23 09:59:28;;;;;;;12.60;6.70;;;;;;;3.41;100.00;98944.00;5534072;32;33862;-87
2022/11/23 10:02:38;;;;;;;10.88;6.90;;;;;;;3.52;100.00;98945.31;5540869;32;35122;-87
2022/11/23 10:05:46;;;;;;;10.35;7.00;;;;;;;3.57;100.00;98940.72;5542669;32;34272;-86
2022/11/23 10:09:17;;;;;;;11.02;6.95;;;;;;;3.62;100.00;98944.84;5551063;32;33994;-88
2022/11/23 10:12:44;;;;;;;10.02;6.57;;;;;;;3.67;100.00;98949.03;5561002;26;32847;-89
2022/11/23 10:16:02;;;;;;;7.97;5.53;;;;;;;3.58;100.00;98952.91;5563883;26;30977;-90
2022/11/23 10:19:16;;;;;;;9.48;6.53;;;;;;;3.61;100.00;98950.16;5550576;32;33799;-90
2022/11/23 10:22:32;;;;;;;8.10;5.90;;;;;;;3.58;100.00;98945.88;5581630;26;33633;-90
2022/11/23 10:25:55;;;;;;;8.70;5.95;;;;;;;3.65;100.00;98951.72;5571711;31;34499;-89
2022/11/23 10:29:10;;;;;;;8.95;5.05;;;;;;;3.74;100.00;98940.84;5577456;31;33997;-90
2022/11/23 10:32:29;;;;;;;8.82;5.80;;;;;;;3.76;100.00;98943.38;5598926;31;34802;-91
2022/11/23 10:35:34;;;;;;;8.60;5.15;;;;;;;3.74;100.00;98937.34;5579016;32;33825;-89
2022/11/23 10:38:36;;;;;;;7.45;5.07;;;;;;;3.84;100.00;98932.53;5559301;32;32750;-89
2022/11/23 10:41:39;;;;;;;7.70;5.32;;;;;;;3.64;100.00;98939.53;5554484;32;33877;-90
2022/11/23 10:44:46;;;;;;;8.30;5.20;;;;;;;3.62;100.00;98941.37;5569720;32;34062;-92
2022/11/23 10:47:51;;;;;;;10.30;5.65;;;;;;;3.62;100.00;98938.75;5574973;31;34205;-93
2022/11/23 10:51:13;;;;;;;8.07;5.78;;;;;;;3.66;100.00;98940.31;5565513;31;32195;-89
2022/11/23 10:54:26;;;;;;;7.15;5.07;;;;;;;3.69;100.00;98945.44;5576888;31;34601;-90
2022/11/23 10:57:30;;;;;;;7.45;5.35;;;;;;;3.66;100.00;98939.47;5589131;31;33934;-90
2022/11/23 11:00:33;;;;;;;7.32;5.45;;;;;;;3.60;100.00;98945.81;5580451;31;33933;-88
2022/11/23 11:03:36;;;;;;;7.53;5.45;;;;;;;3.60;100.00;98943.19;5564580;31;32747;-88
2022/11/23 11:06:38;;;;;;;9.18;5.95;;;;;;;3.86;100.00;98941.19;5575060;31;33959;-87
2022/11/23 11:09:41;;;;;;;10.05;5.70;;;;;;;3.91;100.00;98939.22;5581179;31;34205;-88
2022/11/23 11:12:51;;;;;;;9.15;5.70;;;;;;;3.76;100.00;98949.47;5580307;31;34623;-88
2022/11/23 11:16:02;;;;;;;9.63;6.18;;;;;;;3.86;100.00;98931.56;5584794;31;33934;-87
2022/11/23 11:19:24;;;;;;;12.90;6.87;;;;;;;3.70;100.00;98944.50;5577912;31;32176;-87
2022/11/23 11:22:33;;;;;;;12.80;7.05;;;;;;;3.63;100.00;98941.28;5585258;31;33770;-86
2022/11/23 11:25:38;;;;;;;9.15;6.57;;;;;;;3.65;100.00;98938.62;5581780;31;34545;-87
2022/11/23 11:28:43;;;;;;;9.63;6.32;;;;;;;3.70;100.00;98939.25;5579828;31;34876;-87
2022/11/23 11:31:51;;;;;;;8.32;6.35;;;;;;;3.72;100.00;98934.78;5573298;31;34265;-87
2022/11/23 11:35:08;;;;;;;10.75;6.47;;;;;;;3.75;100.00;98939.06;5581301;31;33525;-86
2022/11/23 11:38:18;;;;;;;12.98;6.87;;;;;;;3.72;100.00;98934.78;5588293;31;34260;-88
2022/11/23 11:41:24;;;;;;;10.13;6.30;;;;;;;3.78;100.00;98925.81;5582073;31;34056;-88
2022/11/23 11:44:31;;;;;;;9.85;6.70;;;;;;;3.93;100.00;98934.75;5593441;31;34361;-88
2022/11/23 11:47:55;;;;;;;9.50;6.80;;;;;;;4.01;100.00;98929.16;5564040;31;33133;-91
2022/11/23 11:51:19;;;;;;;8.90;5.95;;;;;;;4.26;100.00;98936.75;5579260;31;33922;-88
2022/11/23 11:55:00;;;;;;;8.70;6.65;;;;;;;4.18;100.00;98936.25;5593551;31;35326;-88
2022/11/23 11:58:13;;;;;;;9.63;6.62;;;;;;;4.17;100.00;98934.53;5582301;31;34388;-89
2022/11/23 12:01:35;;;;;;;9.75;6.55;;;;;;;4.23;100.00;98939.50;5565573;31;33359;-89
2022/11/23 12:04:52;;;;;;;11.00;7.03;;;;;;;4.08;100.00;98938.47;5587399;31;34184;-87
2022/11/23 12:08:23;;;;;;;10.43;7.00;;;;;;;4.06;100.00;98936.84;5586366;31;34516;-88
2022/11/23 12:11:27;;;;;;;9.68;6.25;;;;;;;4.02;100.00;98939.56;5573102;31;33960;-89
2022/11/23 12:14:35;;;;;;;11.70;6.90;;;;;;;3.93;100.00;98937.38;5574525;31;33737;-89
2022/11/23 12:17:56;;;;;;;10.52;6.55;;;;;;;4.01;100.00;98944.88;5575104;31;34030;-88
2022/11/23 12:21:16;;;;;;;8.90;5.90;;;;;;;4.02;100.00;98936.97;5580377;31;33993;-88
2022/11/23 12:24:41;;;;;;;9.05;5.70;;;;;;;4.00;100.00;98945.81;5566075;31;33063;-88
2022/11/23 12:28:08;;;;;;;9.07;5.80;;;;;;;3.91;100.00;98942.69;5580076;31;33952;-88
2022/11/23 12:31:13;;;;;;;7.95;5.93;;;;;;;4.00;100.00;98937.94;5569603;31;34310;-88
2022/11/23 12:34:36;;;;;;;9.88;5.82;;;;;;;4.02;100.00;98941.37;5572279;31;33941;-89
2022/11/23 12:38:06;;;;;;;8.95;5.97;;;;;;;4.09;100.00;98934.03;5565265;31;32304;-89
2022/11/23 12:41:15;;;;;;;9.25;6.30;;;;;;;4.15;100.00;98937.25;5573002;31;34588;-89
2022/11/23 12:44:46;;;;;;;7.55;5.53;;;;;;;4.21;100.00;98933.47;5578853;31;33679;-92
2022/11/23 12:48:07;;;;;;;6.35;5.05;;;;;;;4.14;100.00;98925.06;5568913;32;34360;-89
2022/11/23 12:51:47;;;;;;;12.67;6.07;;;;;;;4.05;100.00;98930.72;5572250;31;33997;-89
2022/11/23 12:55:25;;;;;;;7.45;5.37;;;;;;;4.18;100.00;98923.97;5592096;31;34440;-89
2022/11/23 12:58:31;;;;;;;8.00;5.37;;;;;;;4.18;100.00;98923.12;5548441;31;33869;-89
2022/11/23 13:01:41;;;;;;;7.47;5.43;;;;;;;4.13;100.00;98930.38;5591342;31;34349;-88
2022/11/23 13:05:02;;;;;;;7.47;5.60;;;;;;;4.04;100.00;98927.22;5585813;31;34396;-88
2022/11/23 13:08:40;;;;;;;8.48;5.43;;;;;;;4.07;100.00;98925.41;5579848;31;33786;-88
2022/11/23 13:11:45;;;;;;;8.20;5.40;;;;;;;4.17;100.00;98930.16;5548673;31;33750;-88
2022/11/23 13:15:07;;;;;;;7.93;5.93;;;;;;;4.23;100.00;98922.91;5587887;31;34688;-88
2022/11/23 13:18:45;;;;;;;7.70;5.32;;;;;;;4.07;100.00;98930.66;5581070;31;34453;-89
2022/11/23 13:21:48;;;;;;;7.97;5.20;;;;;;;4.03;100.00;98937.81;5603836;31;36595;-87
2022/11/23 13:25:18;;;;;;;7.35;5.22;;;;;;;4.14;100.00;98943.44;5589630;31;34964;-87
2022/11/23 13:28:31;;;;;;;7.75;5.15;;;;;;;4.20;100.00;98946.66;5562612;31;32654;-86
2022/11/23 13:31:34;;;;;;;8.30;5.50;;;;;;;4.10;100.00;98952.34;5580124;31;33572;-86
2022/11/23 13:34:46;;;;;;;6.78;5.10;;;;;;;4.10;100.00;98957.59;5571059;32;34280;-87
2022/11/23 13:38:00;;;;;;;10.43;6.00;;;;;;;4.07;100.00;98952.47;5571533;31;34362;-87
2022/11/23 13:41:23;;;;;;;12.57;6.62;;;;;;;4.16;100.00;98952.06;5572629;32;35222;-89
2022/11/23 13:44:33;;;;;;;11.10;7.00;;;;;;;4.30;100.00;98951.44;5572739;32;34033;-85
2022/11/23 13:47:36;;;;;;;10.85;7.12;;;;;;;4.30;100.00;98951.44;5573472;32;34480;-86
2022/11/23 13:50:48;;;;;;;8.68;6.00;;;;;;;4.19;100.00;98953.72;5571266;32;34616;-87
2022/11/23 13:54:21;;;;;;;9.20;6.18;;;;;;;4.10;100.00;98954.97;5570251;32;34672;-87
2022/11/23 13:57:24;;;;;;;10.55;6.65;;;;;;;4.03;100.00;98964.91;5564973;32;34146;-86
2022/11/23 14:00:45;;;;;;;10.77;6.70;;;;;;;4.00;100.00;98956.31;5569280;32;32444;-87
2022/11/23 14:03:50;;;;;;;10.98;6.60;;;;;;;4.03;100.00;98957.03;5570834;32;34499;-86
2022/11/23 14:07:00;;;;;;;9.02;6.00;;;;;;;4.09;100.00;98961.16;5573297;31;34795;-86
2022/11/23 14:10:16;;;;;;;8.85;6.05;;;;;;;4.07;100.00;98954.28;5608440;31;34797;-87
2022/11/23 14:13:27;;;;;;;9.48;5.80;;;;;;;4.15;100.00;98949.50;5594427;31;33304;-86
2022/11/23 14:16:48;;;;;;;;;;;;;;;4.15;100.00;98957.37;5594559;31;32577;-87
2022/11/23 14:20:06;;;;;;;8.40;5.82;;;;;;;4.16;100.00;98959.94;5571796;31;32622;-88
2022/11/23 14:23:26;;;;;;;8.30;5.95;;;;;;;4.24;100.00;98962.22;5601913;31;34325;-88
2022/11/23 14:26:33;;;;;;;11.00;6.28;;;;;;;4.21;100.00;98958.91;5576000;31;32938;-86
2022/11/23 14:30:02;;;;;;;12.27;7.25;;;;;;;4.19;100.00;98961.59;5591124;31;34144;-87
2022/11/23 14:33:27;;;;;;;14.32;7.18;;;;;;;4.26;100.00;98960.38;5592281;31;34412;-87
2022/11/23 14:37:00;;;;;;;11.27;7.30;;;;;;;4.26;100.00;98964.75;5572539;31;34122;-87
2022/11/23 14:40:26;;;;;;;10.73;6.93;;;;;;;4.27;100.00;98964.69;5599668;31;32775;-88
2022/11/23 14:43:29;;;;;;;9.38;7.03;;;;;;;4.26;100.00;98964.75;5596124;31;34455;-87
2022/11/23 14:46:31;;;;;;;11.38;7.20;;;;;;;4.25;100.00;98963.06;5587551;31;35014;-87
2022/11/23 14:49:35;;;;;;;13.10;6.50;;;;;;;4.24;100.00;98970.09;5588160;31;33684;-88
2022/11/23 14:52:38;;;;;;;9.07;6.37;;;;;;;4.23;100.00;98973.63;5580088;31;34175;-86
2022/11/23 14:55:46;;;;;;;9.98;6.53;;;;;;;4.24;100.00;98977.97;5572530;32;34764;-85
2022/11/23 14:58:49;;;;;;;10.07;6.53;;;;;;;4.27;100.00;98972.56;5558378;32;32617;-89
2022/11/23 15:01:56;;;;;;;8.15;6.20;;;;;;;4.28;100.00;98979.50;5573404;32;33883;-89
2022/11/23 15:05:17;;;;;;;11.50;6.53;;;;;;;4.28;100.00;98982.13;5559443;32;33126;-86
2022/11/23 15:08:39;;;;;;;10.60;6.80;;;;;;;4.29;100.00;98983.00;5575203;32;33609;-85
2022/11/23 15:11:41;;;;;;;8.88;6.35;;;;;;;4.24;100.00;98985.84;5574004;32;34046;-87
2022/11/23 15:14:44;;;;;;;10.02;6.55;;;;;;;4.30;100.00;98990.81;5569297;32;34426;-86
2022/11/23 15:18:01;;;;;;;9.90;6.87;;;;;;;4.30;100.00;99001.31;5570736;32;33915;-87
2022/11/23 15:21:25;;;;;;;12.48;7.60;;;;;;;4.28;100.00;99003.16;5557049;32;32462;-87
2022/11/23 15:24:32;;;;;;;11.43;7.55;;;;;;;4.30;100.00;98993.44;5574103;32;33625;-86
2022/11/23 15:27:38;;;;;;;13.52;7.70;;;;;;;4.27;100.00;98990.94;5570328;32;34141;-87
2022/11/23 15:30:41;;;;;;;11.18;7.35;;;;;;;4.29;100.00;98998.75;5568087;32;34739;-88
2022/11/23 15:33:47;;;;;;;11.20;7.97;;;;;;;4.31;100.00;98991.66;5567885;32;34581;-87
2022/11/23 15:36:50;;;;;;;11.57;7.65;;;;;;;4.39;100.00;98996.56;5567774;32;34072;-87
2022/11/23 15:39:54;;;;;;;13.25;8.10;;;;;;;4.38;100.00;98998.31;5568158;32;33929;-87
2022/11/23 15:42:57;;;;;;;13.57;8.25;;;;;;;4.39;100.00;98996.56;5568612;32;34793;-87
2022/11/23 15:46:04;;;;;;;12.57;8.20;;;;;;;4.34;100.00;98998.53;5572835;32;33641;-87
2022/11/23 15:49:13;;;;;;;12.25;7.90;;;;;;;4.40;100.00;99001.75;5577235;32;34279;-87
2022/11/23 15:52:19;;;;;;;13.52;8.43;;;;;;;4.38;100.00;99002.72;5567737;32;34550;-87
2022/11/23 15:55:22;;;;;;;10.40;7.00;;;;;;;4.31;100.00;99003.03;5568943;31;34500;-87
2022/11/23 15:58:25;;;;;;;14.50;8.02;;;;;;;4.29;100.00;99001.38;5568133;32;34140;-88
2022/11/23 16:01:28;;;;;;;12.45;7.45;;;;;;;4.26;100.00;98996.25;5568013;32;34133;-88
2022/11/23 16:04:40;;;;;;;10.65;7.10;;;;;;;4.28;100.00;98999.69;5570798;32;34421;-90
2022/11/23 16:07:58;;;;;;;;;;;;;;;4.30;100.00;99003.09;5582025;32;35274;-91
2022/11/23 16:11:01;;;;;;;10.15;6.95;;;;;;;4.32;100.00;99009.97;5570974;32;35529;-88
2022/11/23 16:14:18;;;;;;;13.02;7.37;;;;;;;4.34;100.00;99014.28;5568064;32;33967;-88
2022/11/23 16:17:24;;;;;;;14.27;8.77;;;;;;;4.35;100.00;99010.75;5567455;32;34211;-88
2022/11/23 16:20:28;;;;;;;16.65;11.12;;;;;;;4.32;100.00;99011.72;5568083;32;33761;-88
2022/11/23 16:23:44;;;;;;;19.83;11.80;;;;;;;4.38;100.00;99011.44;5565929;32;33006;-88
2022/11/23 16:26:47;;;;;;;18.25;12.48;;;;;;;4.35;100.00;99019.47;5567593;32;33872;-88
2022/11/23 16:29:51;;;;;;;18.85;12.32;;;;;;;4.37;100.00;99019.41;5566449;32;32365;-88
2022/11/23 16:32:54;;;;;;;19.65;12.27;;;;;;;4.52;100.00;99017.84;5566425;32;35459;-88
2022/11/23 16:35:57;;;;;;;20.35;12.48;;;;;;;4.41;100.00;99024.44;5570914;32;33999;-88
